Stevensville, Pennsylvania
Current Conditions -  °F | °C
As of 11:22 PM on Tuesday 21 Oct 2014 (Local Time) from KBGM Reporting Station
Overcast Overcast  
Wind Chill: 46°   Ceiling: 400
Heat Index: 49°   Visibility: 8mi
Dew Point: 47°   Wind: 7mph
Humidity: 93%   Direction: 10°N
Pressure: 29.97"   Gusts: NA
Location:  41.76°N, 76.18°W
Report Text: KBGM 220322Z 01006KT 8SM OVC004 09/08 A2997 RMK AO2 T00940083
Loading
Personal Weather Stations






























Interactive Weather Map
Tropical Storm Tracking
New forecast layout! Learn more

10-Day Weather Forecast

Advertisements
Track Severe Weather on mobile